createdAt,value
2022-08-19T00:02:37.611Z,13.60
2022-08-19T00:05:52.226Z,11.65
2022-08-19T00:08:54.963Z,12.27
2022-08-19T00:11:58.743Z,11.40
2022-08-19T00:15:00.877Z,12.38
2022-08-19T00:18:02.811Z,11.77
2022-08-19T00:21:08.517Z,12.75
2022-08-19T00:24:12.225Z,13.15
2022-08-19T00:27:26.382Z,12.10
2022-08-19T00:30:29.731Z,16.05
2022-08-19T00:33:34.906Z,11.93
2022-08-19T00:36:37.966Z,10.50
2022-08-19T00:39:40.108Z,12.23
2022-08-19T00:42:42.842Z,11.07
2022-08-19T00:45:45.165Z,12.80
2022-08-19T00:48:47.137Z,10.95
2022-08-19T00:51:53.163Z,11.27
2022-08-19T00:54:57.493Z,12.45
2022-08-19T00:58:04.924Z,10.07
2022-08-19T01:01:08.624Z,14.93
2022-08-19T01:04:10.833Z,11.68
2022-08-19T01:07:15.137Z,11.60
2022-08-19T01:10:23.298Z,13.40
2022-08-19T01:13:29.895Z,13.47
2022-08-19T01:16:55.438Z,14.05
2022-08-19T01:19:57.382Z,12.48
2022-08-19T01:23:00.269Z,13.27
2022-08-19T01:26:02.303Z,12.85
2022-08-19T01:29:04.786Z,14.97
2022-08-19T01:32:09.004Z,13.50
2022-08-19T01:35:32.485Z,12.43
2022-08-19T01:38:37.509Z,15.45
2022-08-19T01:41:47.551Z,17.05
2022-08-19T01:44:49.932Z,11.90
2022-08-19T01:48:01.498Z,11.52
2022-08-19T01:51:05.643Z,13.88
2022-08-19T01:54:09.257Z,11.73
2022-08-19T01:57:13.579Z,22.98
2022-08-19T02:00:19.794Z,12.33
2022-08-19T02:03:21.768Z,13.30
2022-08-19T02:06:26.805Z,14.20
2022-08-19T02:09:29.092Z,12.15
2022-08-19T02:12:31.264Z,10.20
2022-08-19T02:15:33.309Z,11.80
2022-08-19T02:18:35.486Z,14.55
2022-08-19T02:21:38.453Z,13.20
2022-08-19T02:24:40.487Z,13.23
2022-08-19T02:27:43.512Z,11.27
2022-08-19T02:30:46.134Z,13.67
2022-08-19T02:33:48.911Z,12.10
2022-08-19T02:36:52.019Z,12.27
2022-08-19T02:39:54.530Z,14.07
2022-08-19T02:42:57.056Z,11.15
2022-08-19T02:45:59.032Z,11.93
2022-08-19T02:49:04.243Z,12.98
2022-08-19T02:52:06.365Z,11.65
2022-08-19T02:55:08.837Z,14.70
2022-08-19T02:58:10.850Z,15.65
2022-08-19T03:01:25.349Z,14.27
2022-08-19T03:04:27.412Z,16.45
2022-08-19T03:07:29.294Z,13.70
2022-08-19T03:10:31.281Z,13.55
2022-08-19T03:13:33.864Z,13.02
2022-08-19T03:16:43.529Z,13.13
2022-08-19T03:19:45.495Z,14.70
2022-08-19T03:22:47.524Z,13.40
2022-08-19T03:26:03.811Z,12.23
2022-08-19T03:29:25.881Z,11.80
2022-08-19T03:32:33.418Z,10.77
2022-08-19T03:35:37.697Z,13.25
2022-08-19T03:38:45.367Z,12.45
2022-08-19T03:42:33.075Z,13.30
2022-08-19T03:45:13.106Z,13.57
2022-08-19T03:48:17.607Z,13.87
2022-08-19T03:51:30.939Z,14.13
2022-08-19T03:54:33.209Z,14.13
2022-08-19T03:57:35.635Z,13.45
2022-08-19T04:00:37.828Z,12.15
2022-08-19T04:03:40.908Z,14.03
2022-08-19T04:06:44.390Z,12.77
2022-08-19T04:09:46.419Z,14.10
2022-08-19T04:12:48.382Z,12.30
2022-08-19T04:15:51.009Z,11.73
2022-08-19T04:18:53.140Z,10.47
2022-08-19T04:21:55.732Z,12.95
2022-08-19T04:24:57.696Z,14.77
2022-08-19T04:27:59.658Z,13.90
2022-08-19T04:31:01.618Z,10.90
2022-08-19T04:34:09.389Z,11.57
2022-08-19T04:37:12.775Z,14.50
2022-08-19T04:40:33.768Z,11.45
2022-08-19T04:43:38.446Z,13.35
2022-08-19T04:46:51.330Z,12.30
2022-08-19T04:49:53.976Z,13.07
2022-08-19T04:52:57.065Z,11.82
2022-08-19T04:56:01.991Z,11.57
2022-08-19T04:59:04.888Z,12.07
2022-08-19T05:02:08.955Z,14.40
2022-08-19T05:05:11.005Z,12.90
2022-08-19T05:08:30.742Z,11.43
2022-08-19T05:11:38.259Z,13.20
2022-08-19T05:14:40.257Z,14.20
2022-08-19T05:18:02.279Z,12.95
2022-08-19T05:21:32.915Z,10.87
2022-08-19T05:24:51.284Z,15.15
2022-08-19T05:27:59.944Z,10.50
2022-08-19T05:31:01.953Z,10.60
2022-08-19T05:34:04.569Z,12.75
2022-08-19T05:37:20.215Z,11.73
2022-08-19T05:40:22.442Z,11.07
2022-08-19T05:43:24.761Z,13.60
2022-08-19T05:46:27.980Z,14.18
2022-08-19T05:49:32.371Z,11.45
2022-08-19T05:52:34.301Z,10.87
2022-08-19T05:55:39.167Z,10.25
2022-08-19T05:58:41.215Z,11.82
2022-08-19T06:01:45.586Z,12.77
2022-08-19T06:04:47.574Z,11.30
2022-08-19T06:07:49.954Z,11.63
2022-08-19T06:10:52.016Z,11.25
2022-08-19T06:13:59.503Z,11.70
2022-08-19T06:17:06.848Z,11.55
2022-08-19T06:20:13.007Z,13.35
2022-08-19T06:23:17.122Z,9.87
2022-08-19T06:26:20.621Z,10.18
2022-08-19T06:29:24.965Z,10.68
2022-08-19T06:32:27.123Z,11.85
2022-08-19T06:35:30.497Z,11.60
2022-08-19T06:38:34.466Z,12.27
2022-08-19T06:41:43.585Z,11.52
2022-08-19T06:44:53.142Z,11.38
2022-08-19T06:47:57.049Z,10.70
2022-08-19T06:50:59.193Z,12.48
2022-08-19T06:54:02.939Z,12.73
2022-08-19T06:57:05.020Z,10.27
2022-08-19T07:00:12.916Z,9.70
2022-08-19T07:03:15.209Z,9.68
2022-08-19T07:09:45.008Z,12.93
2022-08-19T07:12:56.471Z,8.93
2022-08-19T07:15:58.482Z,11.63
2022-08-19T07:19:15.960Z,12.80
2022-08-19T07:22:18.875Z,12.18
2022-08-19T07:25:21.916Z,8.70
2022-08-19T07:28:34.628Z,9.73
2022-08-19T07:31:37.990Z,12.00
2022-08-19T07:34:40.467Z,8.48
2022-08-19T07:37:45.213Z,8.45
2022-08-19T07:40:48.082Z,10.30
2022-08-19T07:43:50.348Z,10.20
2022-08-19T07:46:56.791Z,8.43
2022-08-19T07:49:59.587Z,10.60
2022-08-19T07:53:01.615Z,10.93
2022-08-19T07:56:05.239Z,10.40
2022-08-19T07:59:08.774Z,12.18
2022-08-19T08:02:10.993Z,10.43
2022-08-19T08:05:34.879Z,12.68
2022-08-19T08:08:56.340Z,8.82
2022-08-19T08:12:17.956Z,8.73
2022-08-19T08:15:25.102Z,9.32
2022-08-19T08:18:30.352Z,10.77
2022-08-19T08:21:34.191Z,8.32
2022-08-19T08:24:36.957Z,8.65
2022-08-19T08:27:40.956Z,10.60
2022-08-19T08:30:45.128Z,10.70
2022-08-19T08:33:47.955Z,11.05
2022-08-19T08:36:51.885Z,8.00
2022-08-19T08:39:55.373Z,8.57
2022-08-19T08:43:18.939Z,11.80
2022-08-19T08:46:36.103Z,9.95
2022-08-19T08:49:46.267Z,9.80
2022-08-19T08:52:52.355Z,8.85
2022-08-19T08:55:55.087Z,8.63
2022-08-19T08:59:13.821Z,8.03
2022-08-19T09:02:16.994Z,12.00
2022-08-19T09:05:22.030Z,8.80
2022-08-19T09:08:38.148Z,9.50
2022-08-19T09:12:03.187Z,9.73
2022-08-19T09:15:10.154Z,7.50
2022-08-19T09:18:15.359Z,8.50
2022-08-19T09:21:26.037Z,8.85
2022-08-19T09:24:36.787Z,10.93
2022-08-19T09:27:42.715Z,9.00
2022-08-19T09:30:45.366Z,7.10
2022-08-19T09:33:48.495Z,10.13
2022-08-19T09:36:54.558Z,7.68
2022-08-19T09:39:57.156Z,8.57
2022-08-19T09:43:01.606Z,9.82
2022-08-19T09:46:07.557Z,10.13
2022-08-19T09:49:09.536Z,10.93
2022-08-19T09:52:13.715Z,6.75
2022-08-19T09:55:17.027Z,8.07
2022-08-19T09:58:23.397Z,7.88
2022-08-19T10:01:30.528Z,8.40
2022-08-19T10:04:51.025Z,9.73
2022-08-19T10:07:53.175Z,9.85
2022-08-19T10:10:56.223Z,8.15
2022-08-19T10:13:58.187Z,10.18
2022-08-19T10:17:01.343Z,8.93
2022-08-19T10:20:19.585Z,9.75
2022-08-19T10:23:22.252Z,6.95
2022-08-19T10:26:30.116Z,8.00
2022-08-19T10:29:33.544Z,9.32
2022-08-19T10:32:35.898Z,9.57
2022-08-19T10:35:56.442Z,7.95
2022-08-19T10:39:03.118Z,8.77
2022-08-19T10:42:07.294Z,6.78
2022-08-19T10:45:11.156Z,8.55
2022-08-19T10:48:15.676Z,10.13
2022-08-19T10:51:46.519Z,14.45
2022-08-19T10:55:09.140Z,7.45
2022-08-19T10:58:16.798Z,8.40
2022-08-19T11:01:19.149Z,8.43
2022-08-19T11:04:23.500Z,7.50
2022-08-19T11:07:30.921Z,7.85
2022-08-19T11:10:33.193Z,9.75
2022-08-19T11:13:38.660Z,9.23
2022-08-19T11:16:42.494Z,11.95
2022-08-19T11:19:44.469Z,10.17
2022-08-19T11:22:46.628Z,11.07
2022-08-19T11:25:50.866Z,8.50
2022-08-19T11:28:55.406Z,9.52
2022-08-19T11:31:58.572Z,11.80
2022-08-19T11:35:00.676Z,9.07
2022-08-19T11:38:06.262Z,7.78
2022-08-19T11:41:10.972Z,8.48
2022-08-19T11:44:14.615Z,10.45
2022-08-19T11:47:17.304Z,8.15
2022-08-19T11:50:22.557Z,8.43
2022-08-19T11:53:24.763Z,7.03
2022-08-19T11:56:33.399Z,10.85
2022-08-19T11:59:35.400Z,8.63
2022-08-19T12:02:39.541Z,7.15
2022-08-19T12:05:42.596Z,7.70
2022-08-19T12:08:45.721Z,9.50
2022-08-19T12:11:47.828Z,9.57
2022-08-19T12:14:51.924Z,9.95
2022-08-19T12:17:57.477Z,9.48
2022-08-19T12:21:01.429Z,10.67
2022-08-19T12:24:05.472Z,8.93
2022-08-19T12:27:12.489Z,7.68
2022-08-19T12:30:15.510Z,9.40
2022-08-19T12:33:19.360Z,8.55
2022-08-19T12:36:22.988Z,10.20
2022-08-19T12:39:25.528Z,10.70
2022-08-19T12:42:27.673Z,10.13
2022-08-19T12:45:29.757Z,10.52
2022-08-19T12:48:35.514Z,10.02
2022-08-19T12:51:37.607Z,11.20
2022-08-19T12:54:39.596Z,8.48
2022-08-19T12:57:43.240Z,12.45
2022-08-19T13:00:45.441Z,8.38
2022-08-19T13:03:47.899Z,8.25
2022-08-19T13:06:54.312Z,11.37
2022-08-19T13:09:56.353Z,9.05
2022-08-19T13:13:02.479Z,10.32
2022-08-19T13:16:04.665Z,11.85
2022-08-19T13:19:06.748Z,8.18
2022-08-19T13:22:13.152Z,7.90
2022-08-19T13:25:18.608Z,10.70
2022-08-19T13:28:20.669Z,8.50
2022-08-19T13:31:52.944Z,11.23
2022-08-19T13:34:54.973Z,9.00
2022-08-19T13:37:57.001Z,8.97
2022-08-19T13:41:11.060Z,9.15
2022-08-19T13:44:14.873Z,8.25
2022-08-19T13:47:17.361Z,9.50
2022-08-19T13:50:23.340Z,7.63
2022-08-19T13:53:25.632Z,10.47
2022-08-19T13:56:27.590Z,9.90
2022-08-19T13:59:29.569Z,10.93
2022-08-19T14:02:31.619Z,10.88
2022-08-19T14:05:33.750Z,8.15
2022-08-19T14:08:44.228Z,13.57
2022-08-19T14:11:48.005Z,9.27
2022-08-19T14:14:50.233Z,9.40
2022-08-19T14:17:52.509Z,8.35
2022-08-19T14:20:54.819Z,6.45
2022-08-19T14:23:56.775Z,11.73
2022-08-19T14:26:59.383Z,9.57
2022-08-19T14:30:01.591Z,10.10
2022-08-19T14:33:05.850Z,14.05
2022-08-19T14:36:08.176Z,11.90
2022-08-19T14:39:10.566Z,11.77
2022-08-19T14:42:15.192Z,16.52
2022-08-19T14:45:17.279Z,12.88
2022-08-19T14:48:20.392Z,15.18
2022-08-19T14:51:24.888Z,21.70
2022-08-19T14:54:27.223Z,13.87
2022-08-19T14:57:32.868Z,16.77
2022-08-19T15:00:34.932Z,17.95
2022-08-19T15:03:41.408Z,34.97
2022-08-19T15:06:43.537Z,44.00
2022-08-19T15:09:45.632Z,33.27
2022-08-19T15:12:51.609Z,30.55
2022-08-19T15:15:54.722Z,24.63
2022-08-19T15:18:58.573Z,21.38
2022-08-19T15:22:00.653Z,19.20
2022-08-19T15:25:03.851Z,19.17
2022-08-19T15:28:06.717Z,23.00
2022-08-19T15:31:09.284Z,15.50
2022-08-19T15:34:26.478Z,13.35
2022-08-19T15:37:28.448Z,16.10
2022-08-19T15:40:30.717Z,13.83
2022-08-19T15:43:33.028Z,16.23
2022-08-19T15:46:37.873Z,16.85
2022-08-19T15:49:39.954Z,9.57
2022-08-19T15:52:51.697Z,10.90
2022-08-19T15:55:53.828Z,13.83
2022-08-19T15:59:14.530Z,15.35
2022-08-19T16:02:37.709Z,13.05
2022-08-19T16:05:58.491Z,11.98
2022-08-19T16:09:02.934Z,13.77
2022-08-19T16:12:06.187Z,10.57
2022-08-19T16:15:09.850Z,12.73
2022-08-19T16:18:15.624Z,12.05
2022-08-19T16:21:18.012Z,9.98
2022-08-19T16:24:26.612Z,12.10
2022-08-19T16:27:28.776Z,17.90
2022-08-19T16:30:31.088Z,11.68
2022-08-19T16:33:33.444Z,9.02
2022-08-19T16:36:35.653Z,10.73
2022-08-19T16:39:39.830Z,10.63
2022-08-19T16:42:41.883Z,12.20
2022-08-19T16:45:44.099Z,9.77
2022-08-19T16:48:46.414Z,12.73
2022-08-19T16:51:49.035Z,8.85
2022-08-19T16:54:51.048Z,10.25
2022-08-19T16:57:53.423Z,8.07
2022-08-19T17:01:00.779Z,15.43
2022-08-19T17:04:05.896Z,12.23
2022-08-19T17:07:10.055Z,13.05
2022-08-19T17:10:12.347Z,10.27
2022-08-19T17:13:15.243Z,7.70
2022-08-19T17:16:19.915Z,14.00
2022-08-19T17:19:22.142Z,12.18
2022-08-19T17:22:24.143Z,12.82
2022-08-19T17:25:28.695Z,11.95
2022-08-19T17:28:30.927Z,9.40
2022-08-19T17:31:33.440Z,12.50
2022-08-19T17:34:35.579Z,12.35
2022-08-19T17:37:37.780Z,12.52
2022-08-19T17:40:42.818Z,7.07
2022-08-19T17:43:45.203Z,10.73
2022-08-19T17:46:47.618Z,18.00
2022-08-19T17:49:49.632Z,9.43
2022-08-19T17:52:52.424Z,11.13
2022-08-19T17:55:54.401Z,12.13
2022-08-19T17:59:00.008Z,10.30
2022-08-19T18:02:04.834Z,12.73
2022-08-19T18:05:06.934Z,11.48
2022-08-19T18:08:11.176Z,10.80
2022-08-19T18:11:13.370Z,12.27
2022-08-19T18:14:15.421Z,12.80
2022-08-19T18:17:19.183Z,11.30
2022-08-19T18:20:22.271Z,12.00
2022-08-19T18:23:41.256Z,14.77
2022-08-19T18:26:46.911Z,9.05
2022-08-19T18:29:49.170Z,11.20
2022-08-19T18:32:52.784Z,11.18
2022-08-19T18:35:54.721Z,11.68
2022-08-19T18:39:15.613Z,26.13
2022-08-19T18:42:37.696Z,19.88
2022-08-19T18:46:00.040Z,10.83
2022-08-19T18:49:05.552Z,13.32
2022-08-19T18:52:07.705Z,12.30
2022-08-19T18:55:10.009Z,10.50
2022-08-19T18:58:12.074Z,14.70
2022-08-19T19:01:20.851Z,11.23
2022-08-19T19:04:32.702Z,14.32
2022-08-19T19:07:35.407Z,12.45
2022-08-19T19:10:37.642Z,9.65
2022-08-19T19:13:40.874Z,12.93
2022-08-19T19:16:45.871Z,10.17
2022-08-19T19:19:49.008Z,7.88
2022-08-19T19:22:51.071Z,11.57
2022-08-19T19:25:58.421Z,8.68
2022-08-19T19:29:00.621Z,12.55
2022-08-19T19:32:05.366Z,10.47
2022-08-19T19:35:10.644Z,13.10
2022-08-19T19:38:13.733Z,13.63
2022-08-19T19:41:23.414Z,12.88
2022-08-19T19:44:30.365Z,11.05
2022-08-19T19:47:33.309Z,11.73
2022-08-19T19:50:37.478Z,13.52
2022-08-19T19:53:39.979Z,12.20
2022-08-19T19:56:45.007Z,12.32
2022-08-19T19:59:51.204Z,11.85
2022-08-19T20:02:55.971Z,11.43
2022-08-19T20:05:59.353Z,13.25
2022-08-19T20:09:10.914Z,13.00
2022-08-19T20:12:12.869Z,21.40
2022-08-19T20:15:14.938Z,14.30
2022-08-19T20:18:16.961Z,14.80
2022-08-19T20:21:19.006Z,12.48
2022-08-19T20:24:27.008Z,14.10
2022-08-19T20:27:31.127Z,17.85
2022-08-19T20:30:33.644Z,14.18
2022-08-19T20:33:35.835Z,18.80
2022-08-19T20:36:38.829Z,15.32
2022-08-19T20:39:44.896Z,14.55
2022-08-19T20:42:46.896Z,10.05
2022-08-19T20:45:49.489Z,11.90
2022-08-19T20:48:51.679Z,12.33
2022-08-19T20:51:54.713Z,13.27
2022-08-19T20:54:56.715Z,12.95
2022-08-19T20:57:59.255Z,11.25
2022-08-19T21:01:02.907Z,14.32
2022-08-19T21:04:05.080Z,12.07
2022-08-19T21:07:08.953Z,11.52
2022-08-19T21:10:11.264Z,16.08
2022-08-19T21:13:13.803Z,15.65
2022-08-19T21:16:15.857Z,11.85
2022-08-19T21:19:23.303Z,13.77
2022-08-19T21:22:26.175Z,17.33
2022-08-19T21:25:28.139Z,12.13
2022-08-19T21:28:36.123Z,13.57
2022-08-19T21:31:38.838Z,10.77
2022-08-19T21:34:40.907Z,15.03
2022-08-19T21:37:45.864Z,13.30
2022-08-19T21:40:48.141Z,11.73
2022-08-19T21:43:50.175Z,12.27
2022-08-19T21:46:52.103Z,13.13
2022-08-19T21:49:54.115Z,11.50
2022-08-19T21:53:01.577Z,10.73
2022-08-19T21:56:04.406Z,11.43
2022-08-19T21:59:07.611Z,16.35
2022-08-19T22:02:19.446Z,13.10
2022-08-19T22:05:23.932Z,12.37
2022-08-19T22:08:27.228Z,12.80
2022-08-19T22:11:30.451Z,13.25
2022-08-19T22:14:33.728Z,15.23
2022-08-19T22:17:36.204Z,16.30
2022-08-19T22:20:38.190Z,11.33
2022-08-19T22:23:41.777Z,14.00
2022-08-19T22:26:43.870Z,13.23
2022-08-19T22:29:46.119Z,11.18
2022-08-19T22:32:55.936Z,9.52
2022-08-19T22:35:59.313Z,12.03
2022-08-19T22:39:01.590Z,8.63
2022-08-19T22:42:03.719Z,8.80
2022-08-19T22:45:07.600Z,11.80
2022-08-19T22:48:11.855Z,9.68
2022-08-19T22:51:33.843Z,8.87
2022-08-19T22:54:35.823Z,12.90
2022-08-19T22:57:37.822Z,8.23
2022-08-19T23:00:39.932Z,10.63
2022-08-19T23:03:42.509Z,11.15
2022-08-19T23:06:44.627Z,10.93
2022-08-19T23:09:47.317Z,11.15
2022-08-19T23:12:49.367Z,10.25
2022-08-19T23:15:51.553Z,10.88
2022-08-19T23:18:54.376Z,9.93
2022-08-19T23:21:58.526Z,7.43
2022-08-19T23:25:10.478Z,9.40
2022-08-19T23:28:31.232Z,11.02
2022-08-19T23:31:33.389Z,8.48
2022-08-19T23:34:35.467Z,8.18
2022-08-19T23:37:37.696Z,9.47
2022-08-19T23:40:40.272Z,11.60
2022-08-19T23:43:42.988Z,9.77
2022-08-19T23:46:54.892Z,7.95
2022-08-19T23:49:58.137Z,9.95
2022-08-19T23:53:01.609Z,11.43
2022-08-19T23:56:04.897Z,9.18
2022-08-19T23:59:07.112Z,10.45
